Time;durP1;ratioP1;P1;durP2;ratioP2;P2;SDS_P1;SDS_P2;PMS_P1;PMS_P2;Temp;Humidity;BMP_temperature;BMP_pressure;BME280_temperature;BME280_humidity;BME280_pressure;Samples;Min_cycle;Max_cycle;Signal;HPM_P1;HPM_P2
2023/04/23 00:01:18;;;;;;;6.73;3.77;;;15.10;22.20;;;;;;5106081;28;20839;-67
2023/04/23 00:03:46;;;;;;;7.97;3.60;;;15.10;22.10;;;;;;5106523;28;20498;-68
2023/04/23 00:06:14;;;;;;;5.80;3.47;;;15.10;21.90;;;;;;5103311;28;20528;-67
2023/04/23 00:08:41;;;;;;;6.10;3.20;;;15.10;21.80;;;;;;5101145;27;20467;-68
2023/04/23 00:11:10;;;;;;;7.40;4.10;;;15.10;22.10;;;;;;5103717;28;20453;-67
2023/04/23 00:13:38;;;;;;;12.30;4.57;;;15.10;22.40;;;;;;5107972;28;20459;-67
2023/04/23 00:16:05;;;;;;;6.87;3.97;;;15.10;22.70;;;;;;5107207;27;20454;-67
2023/04/23 00:18:32;;;;;;;8.80;4.90;;;15.10;22.60;;;;;;5106071;27;20481;-66
2023/04/23 00:20:59;;;;;;;8.50;4.00;;;15.10;22.90;;;;;;5106528;27;20981;-67
2023/04/23 00:23:25;;;;;;;8.10;4.30;;;15.00;23.10;;;;;;5107590;28;20467;-67
2023/04/23 00:25:52;;;;;;;7.60;4.77;;;15.00;23.30;;;;;;5099947;27;20874;-68
2023/04/23 00:28:20;;;;;;;9.57;4.20;;;15.00;23.10;;;;;;5105367;28;20484;-67
2023/04/23 00:30:47;;;;;;;7.10;4.40;;;15.00;23.30;;;;;;5104024;28;20491;-67
2023/04/23 00:33:14;;;;;;;7.60;4.27;;;14.90;23.40;;;;;;5107720;28;20451;-66
2023/04/23 00:35:41;;;;;;;7.73;4.50;;;14.90;23.40;;;;;;5104145;28;20455;-67
2023/04/23 00:38:07;;;;;;;7.63;4.73;;;14.90;23.50;;;;;;5104697;28;20479;-67
2023/04/23 00:40:34;;;;;;;7.50;4.90;;;14.90;23.50;;;;;;5102279;28;20858;-67
2023/04/23 00:43:02;;;;;;;10.03;4.80;;;14.80;23.60;;;;;;5108394;27;20973;-67
2023/04/23 00:45:30;;;;;;;7.70;5.27;;;14.80;23.70;;;;;;5113427;27;20941;-67
2023/04/23 00:47:58;;;;;;;10.47;5.80;;;14.80;24.00;;;;;;5129408;28;20443;-67
2023/04/23 00:50:25;;;;;;;8.30;5.80;;;14.80;24.00;;;;;;5121638;27;20995;-68
2023/04/23 00:52:51;;;;;;;8.33;4.77;;;14.70;23.90;;;;;;5100583;28;20466;-67
2023/04/23 00:55:19;;;;;;;8.80;4.57;;;14.70;24.00;;;;;;5103085;27;20487;-68
2023/04/23 00:57:46;;;;;;;7.23;4.90;;;14.70;24.10;;;;;;5098960;28;20487;-67
2023/04/23 01:00:14;;;;;;;8.00;4.90;;;14.70;23.90;;;;;;5104544;27;20852;-67
2023/04/23 01:02:43;;;;;;;8.10;4.67;;;14.70;23.80;;;;;;5094015;27;20468;-67
2023/04/23 01:05:11;;;;;;;11.80;4.10;;;14.70;23.70;;;;;;5093655;28;20531;-68
2023/04/23 01:07:38;;;;;;;6.70;4.50;;;14.70;23.80;;;;;;5109331;27;20562;-67
2023/04/23 01:10:06;;;;;;;8.63;4.90;;;14.70;23.80;;;;;;5098186;28;20466;-67
2023/04/23 01:12:33;;;;;;;10.17;4.70;;;14.70;23.80;;;;;;5105184;28;20466;-68
2023/04/23 01:15:00;;;;;;;10.37;4.93;;;14.70;23.90;;;;;;5098338;28;20457;-68
2023/04/23 01:17:27;;;;;;;7.60;4.70;;;14.70;24.00;;;;;;5105480;27;20492;-67
2023/04/23 01:19:56;;;;;;;6.73;4.23;;;14.60;24.00;;;;;;5101618;28;20475;-67
2023/04/23 01:22:24;;;;;;;9.07;4.67;;;14.60;24.00;;;;;;5100518;28;20455;-67
2023/04/23 01:24:52;;;;;;;7.87;4.70;;;14.70;24.10;;;;;;5099203;28;20471;-67
2023/04/23 01:27:21;;;;;;;8.47;4.90;;;14.60;24.10;;;;;;5094570;22;21174;-67
2023/04/23 01:29:48;;;;;;;7.30;4.50;;;14.60;24.00;;;;;;5051385;28;20985;-67
2023/04/23 01:32:15;;;;;;;8.17;4.43;;;14.60;24.00;;;;;;5063884;28;20508;-67
2023/04/23 01:34:44;;;;;;;9.07;4.90;;;14.60;24.20;;;;;;5060921;28;20475;-67
2023/04/23 01:37:11;;;;;;;8.47;4.20;;;14.60;24.30;;;;;;5062436;28;20850;-67
2023/04/23 01:39:39;;;;;;;9.43;4.57;;;14.60;24.50;;;;;;5063915;28;20461;-68
2023/04/23 01:42:07;;;;;;;12.93;5.20;;;14.60;24.80;;;;;;5058563;28;20467;-67
2023/04/23 01:44:34;;;;;;;9.23;4.70;;;14.60;24.90;;;;;;5064514;28;20500;-67
2023/04/23 01:47:00;;;;;;;8.60;4.90;;;14.60;24.90;;;;;;5051500;28;21017;-68
2023/04/23 01:49:27;;;;;;;8.47;5.20;;;14.50;25.00;;;;;;5058125;28;21025;-67
2023/04/23 01:51:54;;;;;;;10.07;5.20;;;14.50;25.00;;;;;;5062646;28;20461;-67
2023/04/23 01:54:21;;;;;;;9.10;4.53;;;14.50;25.20;;;;;;5065907;28;20473;-68
2023/04/23 01:56:53;;;;;;;7.03;4.50;;;14.50;25.30;;;;;;5064196;28;20469;-67
2023/04/23 01:59:20;;;;;;;10.17;5.60;;;14.50;25.50;;;;;;5065654;28;20489;-67
2023/04/23 02:01:47;;;;;;;11.80;4.80;;;14.50;25.50;;;;;;5062281;28;20481;-67
2023/04/23 02:04:16;;;;;;;7.60;4.90;;;14.50;25.50;;;;;;5062414;28;20472;-67
2023/04/23 02:06:46;;;;;;;9.80;5.03;;;14.50;25.60;;;;;;5061934;28;20465;-67
2023/04/23 02:09:13;;;;;;;7.90;5.00;;;14.50;25.70;;;;;;5063633;28;20468;-67
2023/04/23 02:11:39;;;;;;;9.83;5.03;;;14.50;25.70;;;;;;5064067;28;20464;-67
2023/04/23 02:14:09;;;;;;;10.07;6.37;;;14.50;25.60;;;;;;5065100;28;20470;-67
2023/04/23 02:16:36;;;;;;;9.40;5.20;;;14.50;25.70;;;;;;5054084;28;20461;-67
2023/04/23 02:19:03;;;;;;;9.33;5.57;;;14.50;25.80;;;;;;5061458;28;20481;-67
2023/04/23 02:21:30;;;;;;;9.23;5.07;;;14.40;25.80;;;;;;5059951;28;21097;-67
2023/04/23 02:23:56;;;;;;;7.43;4.93;;;14.40;26.00;;;;;;5058286;28;21004;-68
2023/04/23 02:26:24;;;;;;;11.10;5.40;;;14.40;26.30;;;;;;5058368;28;20471;-67
2023/04/23 02:28:50;;;;;;;10.50;5.60;;;14.40;26.50;;;;;;5059861;28;20891;-67
2023/04/23 02:31:19;;;;;;;8.87;6.33;;;14.40;26.70;;;;;;5057124;28;20469;-68
2023/04/23 02:33:46;;;;;;;11.67;6.30;;;14.40;27.00;;;;;;5064537;28;20980;-67
2023/04/23 02:36:13;;;;;;;7.90;6.03;;;14.40;27.50;;;;;;5061582;28;20461;-66
2023/04/23 02:38:41;;;;;;;8.70;5.27;;;14.40;27.50;;;;;;5050531;28;20488;-67
2023/04/23 02:41:08;;;;;;;10.00;5.50;;;14.40;27.40;;;;;;5061470;28;20494;-68
2023/04/23 02:43:34;;;;;;;8.63;5.70;;;14.30;27.60;;;;;;5058042;28;20996;-68
2023/04/23 02:46:06;;;;;;;9.57;5.63;;;14.40;28.00;;;;;;5056113;28;20470;-68
2023/04/23 02:48:36;;;;;;;8.43;5.03;;;14.40;28.40;;;;;;5056874;28;20576;-67
2023/04/23 02:51:02;;;;;;;7.50;4.60;;;14.30;29.50;;;;;;5066213;28;20453;-67
2023/04/23 02:53:29;;;;;;;8.57;4.60;;;14.30;29.30;;;;;;5064171;28;20461;-68
2023/04/23 02:55:56;;;;;;;9.93;5.27;;;14.30;29.40;;;;;;5057607;28;20456;-68
2023/04/23 02:58:23;;;;;;;7.10;4.17;;;14.20;29.40;;;;;;5057928;28;20844;-67
2023/04/23 03:00:50;;;;;;;10.93;5.40;;;14.10;30.40;;;;;;5059955;28;20523;-68
2023/04/23 03:03:17;;;;;;;7.27;4.87;;;14.00;30.80;;;;;;5065954;28;20465;-68
2023/04/23 03:05:45;;;;;;;11.90;6.00;;;14.00;31.10;;;;;;5059393;28;20472;-68
2023/04/23 03:08:11;;;;;;;8.17;5.10;;;14.00;31.40;;;;;;5061384;28;20998;-68
2023/04/23 03:10:38;;;;;;;9.10;5.37;;;14.00;31.60;;;;;;5049245;28;20457;-67
2023/04/23 03:13:05;;;;;;;9.83;5.00;;;14.00;31.80;;;;;;5065391;28;20465;-68
2023/04/23 03:15:31;;;;;;;8.43;5.33;;;13.90;32.50;;;;;;5056779;28;20830;-67
2023/04/23 03:18:00;;;;;;;7.47;5.27;;;13.80;33.00;;;;;;5062436;28;20487;-67
2023/04/23 03:20:27;;;;;;;8.60;5.30;;;13.80;33.40;;;;;;5060573;28;20481;-67
2023/04/23 03:22:55;;;;;;;10.40;5.60;;;13.80;33.50;;;;;;5058847;28;20468;-67
2023/04/23 03:25:24;;;;;;;7.33;5.17;;;13.80;33.80;;;;;;5062392;28;20465;-67
2023/04/23 03:27:51;;;;;;;12.70;6.33;;;13.70;34.30;;;;;;5059488;28;20550;-68
2023/04/23 03:30:18;;;;;;;8.80;5.83;;;13.70;34.70;;;;;;5060407;28;20469;-68
2023/04/23 03:32:45;;;;;;;10.50;6.17;;;13.70;35.10;;;;;;5058891;28;20469;-67
2023/04/23 03:35:12;;;;;;;9.97;6.20;;;13.60;35.30;;;;;;5054493;28;20498;-68
2023/04/23 03:37:39;;;;;;;10.07;6.40;;;13.60;35.50;;;;;;5062376;28;20511;-67
2023/04/23 03:40:09;;;;;;;8.07;5.37;;;13.60;35.80;;;;;;5056703;28;20460;-68
2023/04/23 03:42:35;;;;;;;10.67;6.00;;;13.50;36.20;;;;;;5060780;28;20488;-67
2023/04/23 03:45:03;;;;;;;8.67;5.67;;;13.50;36.50;;;;;;5065680;28;21064;-69
2023/04/23 03:47:29;;;;;;;12.33;6.37;;;13.50;36.50;;;;;;5061410;28;21004;-69
2023/04/23 03:49:56;;;;;;;12.23;6.13;;;13.50;37.00;;;;;;5061863;28;20469;-67
2023/04/23 03:52:23;;;;;;;9.80;6.03;;;13.40;37.40;;;;;;5066050;28;20454;-68
2023/04/23 03:54:50;;;;;;;10.00;6.30;;;13.40;37.60;;;;;;5082249;28;20465;-68
2023/04/23 03:57:18;;;;;;;8.67;5.83;;;13.40;37.80;;;;;;5079438;28;20508;-68
2023/04/23 03:59:44;;;;;;;8.30;5.50;;;13.40;37.90;;;;;;5069052;23;20506;-67
2023/04/23 04:02:11;;;;;;;9.50;5.50;;;13.40;38.10;;;;;;5104708;27;20470;-66
2023/04/23 04:04:38;;;;;;;9.23;6.37;;;13.40;38.00;;;;;;5104982;27;20465;-66
2023/04/23 04:07:06;;;;;;;10.70;5.97;;;13.30;38.10;;;;;;5108023;27;20486;-66
2023/04/23 04:09:33;;;;;;;10.37;6.33;;;13.30;38.20;;;;;;5119510;27;20548;-66
2023/04/23 04:12:00;;;;;;;8.63;5.47;;;13.30;38.20;;;;;;5120321;27;20470;-67
2023/04/23 04:14:28;;;;;;;14.23;5.90;;;13.30;38.40;;;;;;5119362;27;20462;-66
2023/04/23 04:16:55;;;;;;;8.77;5.70;;;13.30;38.30;;;;;;5117397;27;21018;-67
2023/04/23 04:19:22;;;;;;;7.97;5.50;;;13.30;38.40;;;;;;5117521;27;20454;-66
2023/04/23 04:21:50;;;;;;;9.00;5.73;;;13.30;38.40;;;;;;5120671;27;20478;-66
2023/04/23 04:24:17;;;;;;;8.40;5.30;;;13.30;38.50;;;;;;5115340;27;20461;-66
2023/04/23 04:26:44;;;;;;;9.87;5.40;;;13.30;38.40;;;;;;5116656;27;20481;-66
2023/04/23 04:29:11;;;;;;;9.80;5.53;;;13.20;38.30;;;;;;5113403;27;20459;-66
2023/04/23 04:31:39;;;;;;;9.30;5.00;;;13.20;38.60;;;;;;5118304;27;20880;-66
2023/04/23 04:34:07;;;;;;;10.80;5.67;;;13.20;38.50;;;;;;5113536;27;20469;-65
2023/04/23 04:36:34;;;;;;;8.20;4.87;;;13.20;38.30;;;;;;5118576;27;20466;-66
2023/04/23 04:39:02;;;;;;;9.70;4.93;;;13.20;38.30;;;;;;5125861;27;20474;-66
2023/04/23 04:41:29;;;;;;;7.00;4.80;;;13.30;38.00;;;;;;5109394;27;20478;-66
2023/04/23 04:43:57;;;;;;;8.90;5.43;;;13.20;38.20;;;;;;5122085;27;20463;-66
2023/04/23 04:46:25;;;;;;;10.10;6.03;;;13.30;38.30;;;;;;5115648;27;20954;-66
2023/04/23 04:48:54;;;;;;;9.60;6.00;;;13.30;38.20;;;;;;5112597;27;20483;-66
2023/04/23 04:51:21;;;;;;;10.00;5.57;;;13.30;38.30;;;;;;5119160;27;20463;-66
2023/04/23 04:53:48;;;;;;;9.63;5.67;;;13.20;38.30;;;;;;5127032;27;20462;-65
2023/04/23 04:56:15;;;;;;;8.73;5.97;;;13.30;38.40;;;;;;5117930;27;20462;-66
2023/04/23 04:58:41;;;;;;;10.20;5.97;;;13.30;38.30;;;;;;5121985;27;20482;-66
2023/04/23 05:01:09;;;;;;;8.83;5.77;;;13.20;38.60;;;;;;5118859;27;20482;-66
2023/04/23 05:03:37;;;;;;;7.90;5.33;;;13.20;38.90;;;;;;5109986;27;20490;-66
2023/04/23 05:06:06;;;;;;;10.50;6.50;;;13.20;39.20;;;;;;5121657;27;20495;-66
2023/04/23 05:08:33;;;;;;;11.43;6.50;;;13.10;39.50;;;;;;5123888;27;20479;-66
2023/04/23 05:11:01;;;;;;;12.03;6.97;;;13.10;39.90;;;;;;5123819;27;20458;-66
2023/04/23 05:13:27;;;;;;;11.27;7.80;;;13.10;40.10;;;;;;5116416;27;20498;-66
2023/04/23 05:15:54;;;;;;;9.13;5.97;;;13.20;40.30;;;;;;5116198;27;20454;-67
2023/04/23 05:18:21;;;;;;;9.20;5.70;;;13.20;40.10;;;;;;5117124;27;20482;-65
2023/04/23 05:20:48;;;;;;;10.53;5.73;;;13.20;39.80;;;;;;5114000;27;20468;-65
2023/04/23 05:23:16;;;;;;;11.10;6.60;;;13.30;39.50;;;;;;5121292;27;20473;-65
2023/04/23 05:25:43;;;;;;;11.80;6.70;;;13.30;39.40;;;;;;5120690;27;21051;-65
2023/04/23 05:28:10;;;;;;;8.60;5.37;;;13.30;39.20;;;;;;5125060;27;20490;-65
2023/04/23 05:30:36;;;;;;;7.53;5.53;;;13.40;39.00;;;;;;5116011;27;20480;-65
2023/04/23 05:33:03;;;;;;;9.47;6.13;;;13.40;38.70;;;;;;5121721;27;20451;-65
2023/04/23 05:35:30;;;;;;;10.10;6.30;;;13.40;38.70;;;;;;5118399;27;20464;-65
2023/04/23 05:37:57;;;;;;;7.87;5.50;;;13.40;39.00;;;;;;5115792;27;20504;-65
2023/04/23 05:40:25;;;;;;;8.20;5.23;;;13.40;39.00;;;;;;5116453;27;20462;-65
2023/04/23 05:42:52;;;;;;;9.57;6.70;;;13.30;39.10;;;;;;5121612;27;20510;-65
2023/04/23 05:45:19;;;;;;;10.17;6.20;;;13.30;39.00;;;;;;5117569;27;20467;-65
2023/04/23 05:47:46;;;;;;;8.90;6.50;;;13.30;39.30;;;;;;5114406;27;20487;-65
2023/04/23 05:50:13;;;;;;;9.27;6.20;;;13.20;39.30;;;;;;5108803;27;20467;-65
2023/04/23 05:52:40;;;;;;;8.30;5.63;;;13.20;39.40;;;;;;5120910;27;20481;-65
2023/04/23 05:55:08;;;;;;;11.13;5.60;;;13.20;39.50;;;;;;5117578;27;20463;-65
2023/04/23 05:57:37;;;;;;;11.47;6.67;;;13.20;39.50;;;;;;5123018;27;20498;-65
2023/04/23 06:00:05;;;;;;;8.83;5.50;;;13.20;39.70;;;;;;5119375;27;20474;-66
2023/04/23 06:02:32;;;;;;;9.60;6.27;;;13.20;39.90;;;;;;5119962;27;20531;-66
2023/04/23 06:04:59;;;;;;;12.30;6.57;;;13.20;39.80;;;;;;5115949;27;20652;-66
2023/04/23 06:07:26;;;;;;;8.30;5.70;;;13.30;39.90;;;;;;5113813;27;20490;-65
2023/04/23 06:09:53;;;;;;;8.27;5.53;;;13.40;39.90;;;;;;5109332;27;20466;-65
2023/04/23 06:12:19;;;;;;;9.27;6.17;;;13.50;39.60;;;;;;5119336;27;20465;-65
2023/04/23 06:14:47;;;;;;;9.23;6.03;;;13.60;39.30;;;;;;5120806;27;20878;-66
2023/04/23 06:17:14;;;;;;;9.20;5.80;;;13.60;39.30;;;;;;5115658;27;20478;-65
2023/04/23 06:19:41;;;;;;;10.67;6.07;;;13.70;39.20;;;;;;5108013;27;20470;-65
2023/04/23 06:22:08;;;;;;;12.40;6.37;;;13.70;39.00;;;;;;5108855;27;20497;-65
2023/04/23 06:24:35;;;;;;;8.77;5.90;;;13.70;38.60;;;;;;5118043;27;20511;-65
2023/04/23 06:27:02;;;;;;;9.33;5.63;;;13.70;38.50;;;;;;5112297;27;20549;-66
2023/04/23 06:29:29;;;;;;;8.97;5.93;;;13.80;38.60;;;;;;5115424;27;20585;-65
2023/04/23 06:32:00;;;;;;;9.03;5.90;;;13.70;38.30;;;;;;5118108;27;21053;-65
2023/04/23 06:34:27;;;;;;;8.57;6.03;;;13.70;38.60;;;;;;5113627;27;20809;-65
2023/04/23 06:36:54;;;;;;;11.63;6.73;;;13.70;39.10;;;;;;5118123;27;20463;-65
2023/04/23 06:39:20;;;;;;;7.93;5.20;;;13.80;38.70;;;;;;5115124;27;20516;-66
2023/04/23 06:41:47;;;;;;;9.40;6.30;;;13.90;38.70;;;;;;5114742;27;20842;-66
2023/04/23 06:44:14;;;;;;;9.80;6.67;;;13.90;38.40;;;;;;5116428;27;20487;-65
2023/04/23 06:46:41;;;;;;;9.23;6.10;;;14.10;37.70;;;;;;5107176;27;20476;-66
2023/04/23 06:49:09;;;;;;;10.13;6.00;;;14.20;38.00;;;;;;5114869;27;21013;-65
2023/04/23 06:51:36;;;;;;;8.67;6.17;;;14.40;37.20;;;;;;5117629;27;20469;-66
2023/04/23 06:54:02;;;;;;;11.87;6.33;;;14.50;36.90;;;;;;5114981;27;20458;-65
2023/04/23 06:56:29;;;;;;;7.63;5.10;;;14.60;36.20;;;;;;5114446;27;20951;-65
2023/04/23 06:58:56;;;;;;;9.50;5.03;;;14.70;36.00;;;;;;5114494;27;20481;-65
2023/04/23 07:01:23;;;;;;;9.07;5.10;;;14.80;35.80;;;;;;5107246;27;20503;-65
2023/04/23 07:03:53;;;;;;;8.53;5.47;;;15.00;35.50;;;;;;5111961;28;20493;-65
2023/04/23 07:06:21;;;;;;;8.27;5.10;;;15.10;32.80;;;;;;5107904;28;20469;-66
2023/04/23 07:08:48;;;;;;;9.07;5.30;;;15.20;32.90;;;;;;5115887;28;20482;-66
2023/04/23 07:11:14;;;;;;;10.90;5.53;;;15.30;32.90;;;;;;5109770;28;20502;-65
2023/04/23 07:13:42;;;;;;;7.27;4.77;;;15.30;32.30;;;;;;5113995;28;20463;-66
2023/04/23 07:16:09;;;;;;;7.53;4.80;;;15.40;32.00;;;;;;5123002;27;20490;-66
2023/04/23 07:18:36;;;;;;;7.87;4.40;;;15.40;32.30;;;;;;5110938;28;20486;-66
2023/04/23 07:21:02;;;;;;;13.13;4.90;;;15.50;31.80;;;;;;5117517;28;23796;-66
2023/04/23 07:23:30;;;;;;;6.60;3.87;;;15.50;31.50;;;;;;5115404;28;20482;-66
2023/04/23 07:25:57;;;;;;;7.17;4.30;;;15.50;30.50;;;;;;5117849;28;20471;-65
2023/04/23 07:28:24;;;;;;;7.90;3.90;;;15.40;30.30;;;;;;5116417;28;20484;-65
2023/04/23 07:30:51;;;;;;;7.50;4.30;;;15.40;30.00;;;;;;5116473;27;20499;-65
2023/04/23 07:33:18;;;;;;;7.07;4.17;;;15.40;29.60;;;;;;5119720;28;20462;-65
2023/04/23 07:35:45;;;;;;;6.63;4.00;;;15.40;29.80;;;;;;5116546;27;20502;-65
2023/04/23 07:38:12;;;;;;;6.93;3.70;;;15.40;29.80;;;;;;5117279;27;20490;-65
2023/04/23 07:40:40;;;;;;;6.23;4.00;;;15.40;29.80;;;;;;5120391;27;20474;-65
2023/04/23 07:43:06;;;;;;;7.10;3.77;;;15.50;29.80;;;;;;5120375;27;20482;-66
2023/04/23 07:45:33;;;;;;;6.20;3.20;;;15.50;29.80;;;;;;5118239;27;20467;-66
2023/04/23 07:48:01;;;;;;;6.53;3.70;;;15.60;28.70;;;;;;5120531;27;21354;-67
2023/04/23 07:50:28;;;;;;;6.07;3.53;;;15.70;28.40;;;;;;5114723;27;20573;-66
2023/04/23 07:52:55;;;;;;;6.57;3.43;;;16.20;28.50;;;;;;5114140;27;20455;-66
2023/04/23 07:55:21;;;;;;;5.70;3.23;;;16.70;25.40;;;;;;5117052;27;20463;-66
2023/04/23 07:57:50;;;;;;;6.10;3.00;;;16.80;24.40;;;;;;5116697;27;20486;-66
2023/04/23 08:00:17;;;;;;;5.70;3.20;;;16.80;24.10;;;;;;5119830;27;20470;-67
2023/04/23 08:02:44;;;;;;;6.40;3.00;;;17.00;23.60;;;;;;5118308;27;20482;-66
2023/04/23 08:05:10;;;;;;;5.13;2.70;;;17.60;22.90;;;;;;5115606;27;20837;-66
2023/04/23 08:07:37;;;;;;;5.47;2.60;;;18.90;19.90;;;;;;5109842;27;20483;-66
2023/04/23 08:10:05;;;;;;;7.00;2.87;;;20.10;18.30;;;;;;5119974;27;20467;-66
2023/04/23 08:12:34;;;;;;;4.50;2.20;;;21.60;14.90;;;;;;5121824;27;20467;-66
2023/04/23 08:15:03;;;;;;;5.17;2.13;;;22.20;11.70;;;;;;5111426;27;20494;-66
2023/04/23 08:17:30;;;;;;;5.13;2.33;;;22.60;10.40;;;;;;5116576;27;20609;-66
2023/04/23 08:19:57;;;;;;;5.00;2.50;;;23.90;8.50;;;;;;5125706;27;20463;-67
2023/04/23 08:22:24;;;;;;;5.43;2.70;;;24.10;6.70;;;;;;5114118;27;20479;-66
2023/04/23 08:24:51;;;;;;;5.93;2.60;;;24.60;5.70;;;;;;5123799;27;20458;-66
2023/04/23 08:27:18;;;;;;;5.03;2.17;;;25.80;4.70;;;;;;5114764;27;20486;-67
2023/04/23 08:29:44;;;;;;;3.87;1.47;;;27.70;1.40;;;;;;5121425;27;20465;-67
2023/04/23 08:32:12;;;;;;;4.10;1.90;;;28.60;1.00;;;;;;5111547;27;20466;-67
2023/04/23 08:34:39;;;;;;;7.30;1.80;;;31.10;1.00;;;;;;5119460;27;20908;-67
2023/04/23 08:37:06;;;;;;;4.20;1.70;;;33.30;1.00;;;;;;5116309;27;20695;-67
2023/04/23 08:39:33;;;;;;;4.07;1.40;;;34.10;1.00;;;;;;5117150;27;20458;-67
2023/04/23 08:42:08;;;;;;;4.10;1.67;;;32.60;1.00;;;;;;5119971;27;20501;-66
2023/04/23 08:44:37;;;;;;;5.60;1.53;;;30.80;1.00;;;;;;5114488;27;21068;-66
2023/04/23 08:47:05;;;;;;;4.90;1.50;;;29.10;1.00;;;;;;5109519;27;20486;-66
2023/04/23 08:49:34;;;;;;;3.80;1.60;;;27.80;1.00;;;;;;5123436;27;20454;-66
2023/04/23 08:52:09;;;;;;;4.40;1.20;;;27.30;1.00;;;;;;5122420;27;20806;-66
2023/04/23 08:54:40;;;;;;;3.70;1.10;;;27.30;1.00;;;;;;5116217;27;20506;-66
2023/04/23 08:57:08;;;;;;;4.67;1.80;;;26.70;1.00;;;;;;5116446;27;20487;-66
2023/04/23 08:59:36;;;;;;;3.83;1.37;;;25.90;1.00;;;;;;5112964;27;20467;-64
2023/04/23 09:02:08;;;;;;;4.67;1.20;;;25.30;2.00;;;;;;5115670;27;20477;-67
2023/04/23 09:04:37;;;;;;;4.27;1.23;;;24.70;2.90;;;;;;5121586;27;20500;-66
2023/04/23 09:07:04;;;;;;;4.00;1.57;;;24.30;3.60;;;;;;5123608;27;20459;-66
2023/04/23 09:09:31;;;;;;;5.30;2.30;;;24.10;4.30;;;;;;5111562;27;20769;-66
2023/04/23 09:11:58;;;;;;;3.70;1.20;;;23.60;4.50;;;;;;5115153;27;20946;-66
2023/04/23 09:14:25;;;;;;;4.00;1.27;;;23.20;5.10;;;;;;5111032;27;20459;-66
2023/04/23 09:16:53;;;;;;;4.00;1.40;;;22.90;6.10;;;;;;5113580;27;20549;-66
2023/04/23 09:19:20;;;;;;;4.60;1.50;;;23.70;5.80;;;;;;5111991;27;20458;-66
2023/04/23 09:21:48;;;;;;;4.10;1.40;;;24.60;3.70;;;;;;5112061;27;20458;-66
2023/04/23 09:24:16;;;;;;;4.47;1.43;;;24.90;3.30;;;;;;5113748;27;20506;-66
2023/04/23 09:26:48;;;;;;;3.63;1.33;;;25.10;3.50;;;;;;5117400;27;21000;-66
2023/04/23 09:29:17;;;;;;;4.90;1.47;;;24.90;3.60;;;;;;5103843;27;20529;-66
2023/04/23 09:31:46;;;;;;;4.10;1.30;;;24.40;3.00;;;;;;5107967;27;20478;-66
2023/04/23 09:34:15;;;;;;;4.70;1.33;;;23.90;3.70;;;;;;5118342;27;20585;-66
2023/04/23 09:36:42;;;;;;;3.87;1.07;;;23.60;3.70;;;;;;5111543;27;20779;-66
2023/04/23 09:39:13;;;;;;;4.20;1.50;;;23.30;4.60;;;;;;5103418;27;21050;-66
2023/04/23 09:41:40;;;;;;;4.40;1.10;;;23.00;5.10;;;;;;5117656;27;20467;-66
2023/04/23 09:44:08;;;;;;;3.67;1.07;;;22.90;5.60;;;;;;5108666;27;20488;-66
2023/04/23 09:46:36;;;;;;;4.20;1.10;;;22.70;6.00;;;;;;5115870;27;20966;-66
2023/04/23 09:49:06;;;;;;;4.00;0.90;;;22.50;6.20;;;;;;5110682;27;20494;-66
2023/04/23 09:51:33;;;;;;;3.70;1.10;;;22.30;6.40;;;;;;5102579;27;20451;-66
2023/04/23 09:54:02;;;;;;;4.00;1.20;;;22.10;6.80;;;;;;5117154;27;20978;-67
2023/04/23 09:56:31;;;;;;;4.03;1.30;;;22.20;7.30;;;;;;5110309;27;20493;-67
2023/04/23 09:58:58;;;;;;;3.50;1.10;;;22.30;7.40;;;;;;5111143;27;20471;-66
2023/04/23 10:01:29;;;;;;;3.63;1.10;;;22.50;6.70;;;;;;5109339;27;20474;-68
2023/04/23 10:03:56;;;;;;;3.60;0.93;;;22.60;6.30;;;;;;5114114;27;20583;-66
2023/04/23 10:06:30;;;;;;;3.60;1.00;;;22.50;6.00;;;;;;5111047;27;20530;-67
2023/04/23 10:08:57;;;;;;;4.10;1.20;;;22.50;6.00;;;;;;5110623;27;20491;-67
2023/04/23 10:11:24;;;;;;;3.83;1.30;;;22.70;5.80;;;;;;5114469;27;20466;-66
2023/04/23 10:13:54;;;;;;;4.00;0.77;;;23.10;6.00;;;;;;5103189;27;20459;-67
2023/04/23 10:16:23;;;;;;;3.80;0.90;;;23.20;5.40;;;;;;5107363;27;20528;-67
2023/04/23 10:18:51;;;;;;;4.60;1.07;;;23.50;5.20;;;;;;5102458;27;20614;-67
2023/04/23 10:21:20;;;;;;;5.57;1.17;;;24.70;4.40;;;;;;5106359;27;20872;-67
2023/04/23 10:23:49;;;;;;;4.33;0.90;;;26.40;1.00;;;;;;5113720;27;20482;-67
2023/04/23 10:26:17;;;;;;;3.40;0.70;;;26.80;1.00;;;;;;5111284;27;20954;-67
2023/04/23 10:28:48;;;;;;;3.60;1.00;;;26.90;1.00;;;;;;5114490;27;20498;-67
2023/04/23 10:31:19;;;;;;;3.50;0.80;;;28.50;1.00;;;;;;5116095;27;20471;-67
2023/04/23 10:33:49;;;;;;;3.20;0.60;;;29.80;1.00;;;;;;5108978;27;20963;-67
2023/04/23 10:36:16;;;;;;;3.53;0.90;;;29.60;1.00;;;;;;5116984;27;20612;-67
2023/04/23 10:38:45;;;;;;;3.40;0.70;;;28.70;1.00;;;;;;5114199;27;20474;-67
2023/04/23 10:41:16;;;;;;;3.80;0.90;;;27.80;1.00;;;;;;5108476;27;20934;-67
2023/04/23 10:43:43;;;;;;;3.60;0.80;;;27.10;1.00;;;;;;5112380;27;20482;-67
2023/04/23 10:46:30;;;;;;;4.10;1.10;;;26.50;1.00;;;;;;5111553;27;20466;-67
2023/04/23 10:49:07;;;;;;;3.30;0.70;;;25.80;1.00;;;;;;5102896;27;20490;-67
2023/04/23 10:51:34;;;;;;;4.10;0.90;;;25.50;1.00;;;;;;5117509;27;20757;-67
2023/04/23 10:54:03;;;;;;;4.07;0.90;;;25.30;1.00;;;;;;5109754;27;20454;-67
2023/04/23 10:56:29;;;;;;;3.47;0.80;;;25.20;1.00;;;;;;5111772;27;20465;-67
2023/04/23 10:58:57;;;;;;;3.30;0.70;;;25.10;1.00;;;;;;5104022;27;20486;-67
2023/04/23 11:01:25;;;;;;;4.00;0.90;;;24.90;1.00;;;;;;5108754;27;20502;-67
2023/04/23 11:03:53;;;;;;;3.20;0.80;;;25.00;1.10;;;;;;5112152;28;20510;-67
2023/04/23 11:07:04;;;;;;;3.50;0.70;;;25.10;1.20;;;;;;5111508;27;20470;-67
2023/04/23 11:09:41;;;;;;;3.83;0.70;;;24.80;1.00;;;;;;5092155;27;20484;-67
2023/04/23 11:12:10;;;;;;;4.00;0.90;;;24.40;1.00;;;;;;5114816;27;20471;-67
2023/04/23 11:14:42;;;;;;;4.20;1.00;;;23.80;1.00;;;;;;5112031;27;20882;-67
2023/04/23 11:17:12;;;;;;;4.57;0.70;;;23.50;1.70;;;;;;5113227;27;20474;-67
2023/04/23 11:19:41;;;;;;;4.00;0.80;;;23.30;2.30;;;;;;5118668;27;20465;-66
2023/04/23 11:22:16;;;;;;;4.33;0.90;;;23.20;2.80;;;;;;5118033;27;20462;-66
2023/04/23 11:24:44;;;;;;;3.60;0.77;;;23.20;3.30;;;;;;5116224;27;20478;-67
2023/04/23 11:27:12;;;;;;;3.50;0.90;;;23.10;4.00;;;;;;5118261;27;20494;-67
2023/04/23 11:29:40;;;;;;;4.00;0.70;;;23.10;4.00;;;;;;5119302;27;20465;-67
2023/04/23 11:32:11;;;;;;;3.80;0.80;;;23.10;2.90;;;;;;5118370;27;20483;-67
2023/04/23 11:34:42;;;;;;;3.60;0.77;;;23.10;3.10;;;;;;5123958;27;20517;-67
2023/04/23 11:37:11;;;;;;;4.30;1.03;;;23.20;4.80;;;;;;5117673;27;20563;-67
2023/04/23 11:39:37;;;;;;;3.50;0.83;;;23.40;3.20;;;;;;5120740;27;20497;-67
2023/04/23 11:42:05;;;;;;;3.30;0.80;;;23.50;4.00;;;;;;5114373;27;20476;-67
2023/04/23 11:44:32;;;;;;;3.57;1.10;;;23.50;4.50;;;;;;5113685;27;20483;-66
2023/04/23 11:47:02;;;;;;;4.97;1.00;;;23.60;2.70;;;;;;5119754;27;20466;-67
2023/04/23 11:49:28;;;;;;;4.17;1.30;;;23.70;3.60;;;;;;5115590;27;20462;-66
2023/04/23 11:52:00;;;;;;;3.60;1.00;;;23.80;4.10;;;;;;5121503;27;20467;-67
2023/04/23 11:54:28;;;;;;;4.00;0.90;;;23.70;4.10;;;;;;5121637;27;21015;-67
2023/04/23 11:56:56;;;;;;;3.60;1.00;;;23.60;4.10;;;;;;5111980;27;20541;-67
2023/04/23 11:59:23;;;;;;;3.77;1.07;;;23.60;4.00;;;;;;5110573;27;20455;-67
2023/04/23 12:01:52;;;;;;;3.60;0.90;;;23.50;4.40;;;;;;5118770;27;20467;-67
2023/04/23 12:04:20;;;;;;;4.27;1.20;;;23.50;5.10;;;;;;5117055;27;20474;-67
2023/04/23 12:06:49;;;;;;;4.43;1.10;;;23.50;4.90;;;;;;5123455;27;20462;-67
2023/04/23 12:09:19;;;;;;;4.27;1.00;;;23.50;4.70;;;;;;5112347;27;20463;-67
2023/04/23 12:11:46;;;;;;;4.50;1.30;;;23.40;4.10;;;;;;5122199;27;20470;-67
2023/04/23 12:14:15;;;;;;;3.60;1.20;;;23.20;3.90;;;;;;5118170;27;20459;-66
2023/04/23 12:16:43;;;;;;;4.30;1.40;;;23.10;3.90;;;;;;5116128;27;20459;-66
2023/04/23 12:19:12;;;;;;;5.40;1.23;;;23.00;4.10;;;;;;5112913;27;20471;-66
2023/04/23 12:21:50;;;;;;;4.10;0.90;;;23.00;5.10;;;;;;5117632;27;20464;-67
2023/04/23 12:24:18;;;;;;;4.07;1.10;;;23.00;4.60;;;;;;5118359;27;20478;-67
2023/04/23 12:26:44;;;;;;;4.73;1.00;;;23.20;5.20;;;;;;5122122;27;20473;-66
2023/04/23 12:29:13;;;;;;;4.63;1.17;;;23.20;5.20;;;;;;5118954;27;20546;-67
2023/04/23 12:31:42;;;;;;;3.97;1.37;;;23.20;5.50;;;;;;5117625;27;20505;-67
2023/04/23 12:34:10;;;;;;;3.50;1.10;;;23.20;4.30;;;;;;5119186;27;20463;-66
2023/04/23 12:36:39;;;;;;;4.50;1.60;;;23.00;3.80;;;;;;5114305;27;20470;-67
2023/04/23 12:39:23;;;;;;;4.80;1.20;;;22.90;4.60;;;;;;5126485;27;20565;-67
2023/04/23 12:41:51;;;;;;;3.70;0.90;;;22.80;5.50;;;;;;5119882;27;20463;-67
2023/04/23 12:44:17;;;;;;;5.00;1.10;;;22.80;5.20;;;;;;5118567;27;20543;-67
2023/04/23 12:46:44;;;;;;;3.73;0.93;;;22.70;5.40;;;;;;5123802;27;20459;-67
2023/04/23 12:49:11;;;;;;;5.03;1.53;;;22.70;5.40;;;;;;5121344;27;20462;-67
2023/04/23 12:51:38;;;;;;;5.07;1.40;;;22.70;6.00;;;;;;5125747;27;20792;-67